Terminal Aerodrome Forecast
Issued by NWS Duluth, MN

Home | Current Version | Previous Version | Text Only | Print | Product List | Glossary On
Versions: 1 2 3 4 5 6 7 8 9 10 11 12 13 14 15 16 17 18 19 20 21 22 23 24 25 26 27 28 29 30 31 32 33 34
000
FTUS43 KDLH 261503 AAB
TAFDLH
TAF AMD
KDLH 261503Z 2615/2712 29019G30KT P6SM -SHRA SCT025 BKN050
     FM261600 29020G30KT P6SM -SHRA OVC025
     FM261800 29020G32KT P6SM -SHRA SCT030 OVC035
     FM262200 28018G29KT P6SM -SHRA SCT025 OVC030
     FM270300 30015G29KT P6SM VCSH OVC025=

USA.gov is the U.S. government's official web portal to all federal, state and local government web resources and services.